createdAt,value
2023-04-29T00:02:00.104Z,10.47
2023-04-29T00:04:29.558Z,9.70
2023-04-29T00:06:58.728Z,10.43
2023-04-29T00:09:28.090Z,9.20
2023-04-29T00:11:57.378Z,13.97
2023-04-29T00:14:27.930Z,11.70
2023-04-29T00:16:57.329Z,10.40
2023-04-29T00:19:26.724Z,10.93
2023-04-29T00:21:55.979Z,9.47
2023-04-29T00:24:25.275Z,9.10
2023-04-29T00:26:54.996Z,14.63
2023-04-29T00:29:24.182Z,9.40
2023-04-29T00:31:55.018Z,10.43
2023-04-29T00:34:24.545Z,14.47
2023-04-29T00:36:53.624Z,10.50
2023-04-29T00:39:23.028Z,11.30
2023-04-29T00:41:52.440Z,10.00
2023-04-29T00:44:21.803Z,11.23
2023-04-29T00:46:51.051Z,9.37
2023-04-29T00:49:21.767Z,9.60
2023-04-29T00:51:51.077Z,9.13
2023-04-29T00:54:20.420Z,12.50
2023-04-29T00:56:50.569Z,11.23
2023-04-29T00:59:20.048Z,11.63
2023-04-29T01:01:51.268Z,10.80
2023-04-29T01:04:22.501Z,10.53
2023-04-29T01:07:00.232Z,10.80
2023-04-29T01:09:41.661Z,14.47
2023-04-29T01:12:23.867Z,15.50
2023-04-29T01:15:04.995Z,10.03
2023-04-29T01:17:41.428Z,12.17
2023-04-29T01:20:13.483Z,14.73
2023-04-29T01:22:43.245Z,15.57
2023-04-29T01:25:13.719Z,12.07
2023-04-29T01:28:15.736Z,12.50
2023-04-29T01:30:58.497Z,15.40
2023-04-29T01:33:38.062Z,15.43
2023-04-29T01:36:20.142Z,14.00
2023-04-29T01:39:12.424Z,14.37
2023-04-29T01:41:46.090Z,12.50
2023-04-29T01:44:25.720Z,17.07
2023-04-29T01:46:58.951Z,15.93
2023-04-29T01:49:38.746Z,15.57
2023-04-29T01:52:08.322Z,12.00
2023-04-29T01:54:38.991Z,14.10
2023-04-29T01:57:09.480Z,16.97
2023-04-29T02:00:05.066Z,16.80
2023-04-29T02:02:45.083Z,18.47
2023-04-29T02:05:26.682Z,15.40
2023-04-29T02:07:59.287Z,16.93
2023-04-29T02:10:29.312Z,14.60
2023-04-29T02:13:13.593Z,17.10
2023-04-29T02:15:43.691Z,21.50
2023-04-29T02:18:12.798Z,15.67
2023-04-29T02:20:43.220Z,18.23
2023-04-29T02:23:12.617Z,16.07
2023-04-29T02:25:41.833Z,14.47
2023-04-29T02:28:12.285Z,14.47
2023-04-29T02:30:42.847Z,17.47
2023-04-29T02:33:12.004Z,15.70
2023-04-29T02:35:41.148Z,16.20
2023-04-29T02:38:11.961Z,20.93
2023-04-29T02:40:44.140Z,17.20
2023-04-29T02:43:15.060Z,19.53
2023-04-29T02:45:44.719Z,17.53
2023-04-29T02:48:13.858Z,17.93
2023-04-29T02:50:43.908Z,21.10
2023-04-29T02:53:13.290Z,18.13
2023-04-29T02:55:43.424Z,19.57
2023-04-29T02:58:13.962Z,17.97
2023-04-29T03:00:43.391Z,16.63
2023-04-29T03:03:12.675Z,21.63
2023-04-29T03:05:41.878Z,19.20
2023-04-29T03:08:11.373Z,17.67
2023-04-29T03:10:41.743Z,18.90
2023-04-29T03:13:11.037Z,18.70
2023-04-29T03:15:41.942Z,23.17
2023-04-29T03:18:11.295Z,18.47
2023-04-29T03:20:40.660Z,17.90
2023-04-29T03:23:09.893Z,17.30
2023-04-29T03:25:39.286Z,20.13
2023-04-29T03:28:09.299Z,27.33
2023-04-29T03:30:40.717Z,18.53
2023-04-29T03:33:09.988Z,28.07
2023-04-29T03:35:39.519Z,23.07
2023-04-29T03:38:31.008Z,26.10
2023-04-29T03:41:00.097Z,27.30
2023-04-29T03:43:29.481Z,23.50
2023-04-29T03:46:00.009Z,22.10
2023-04-29T03:48:29.441Z,20.97
2023-04-29T03:50:58.701Z,25.60
2023-04-29T03:53:27.839Z,25.13
2023-04-29T03:55:57.433Z,29.07
2023-04-29T03:58:26.788Z,28.90
2023-04-29T04:00:58.678Z,27.93
2023-04-29T04:03:38.504Z,26.30
2023-04-29T04:06:07.764Z,25.17
2023-04-29T04:08:36.901Z,26.73
2023-04-29T04:11:15.135Z,34.50
2023-04-29T04:13:47.486Z,24.70
2023-04-29T04:16:18.151Z,36.97
2023-04-29T04:18:47.265Z,29.00
2023-04-29T04:21:16.547Z,32.67
2023-04-29T04:23:50.237Z,28.70
2023-04-29T04:26:23.777Z,27.37
2023-04-29T04:29:05.173Z,34.40
2023-04-29T04:31:52.742Z,29.67
2023-04-29T04:34:22.576Z,29.33
2023-04-29T04:36:53.901Z,27.83
2023-04-29T04:39:24.657Z,27.30
2023-04-29T04:41:55.609Z,26.80
2023-04-29T04:44:25.434Z,28.17
2023-04-29T04:47:06.712Z,31.53
2023-04-29T04:49:45.408Z,27.23
2023-04-29T04:52:15.475Z,29.67
2023-04-29T04:54:47.708Z,30.20
2023-04-29T04:57:24.474Z,32.17
2023-04-29T04:59:54.484Z,30.33
2023-04-29T05:02:25.377Z,35.23
2023-04-29T05:04:54.957Z,34.53
2023-04-29T05:07:27.858Z,27.00
2023-04-29T05:10:03.023Z,33.60
2023-04-29T05:12:35.457Z,35.93
2023-04-29T05:15:06.023Z,31.17
2023-04-29T05:17:38.463Z,32.40
2023-04-29T05:20:09.524Z,34.00
2023-04-29T05:22:38.784Z,35.00
2023-04-29T05:25:08.808Z,37.10
2023-04-29T05:27:39.344Z,33.17
2023-04-29T05:30:13.047Z,25.97
2023-04-29T05:32:43.657Z,34.87
2023-04-29T05:38:09.373Z,28.23
2023-04-29T05:40:41.868Z,26.83
2023-04-29T05:43:29.462Z,34.63
2023-04-29T05:45:59.753Z,28.87
2023-04-29T05:48:30.618Z,27.40
2023-04-29T05:51:00.369Z,27.47
2023-04-29T05:53:29.776Z,29.63
2023-04-29T05:59:40.776Z,30.37
2023-04-29T06:02:12.552Z,28.33
2023-04-29T06:04:48.062Z,25.10
2023-04-29T06:07:43.301Z,31.63
2023-04-29T06:10:33.488Z,27.17
2023-04-29T06:13:02.685Z,31.27
2023-04-29T06:15:32.099Z,31.57
2023-04-29T06:18:01.336Z,32.17
2023-04-29T06:20:32.124Z,28.03
2023-04-29T06:23:01.335Z,29.47
2023-04-29T06:25:31.155Z,29.60
2023-04-29T06:28:04.548Z,28.80
2023-04-29T06:30:34.504Z,29.90
2023-04-29T06:33:03.878Z,31.00
2023-04-29T06:35:34.521Z,26.87
2023-04-29T06:38:13.944Z,28.10
2023-04-29T06:41:03.694Z,26.93
2023-04-29T06:43:51.599Z,24.70
2023-04-29T06:46:40.263Z,25.33
2023-04-29T06:49:13.463Z,24.20
2023-04-29T06:51:44.459Z,22.63
2023-04-29T06:54:14.300Z,23.20
2023-04-29T06:56:44.221Z,28.60
2023-04-29T06:59:18.622Z,28.97
2023-04-29T07:01:49.620Z,27.33
2023-04-29T07:04:28.105Z,23.97
2023-04-29T07:07:34.104Z,29.20
2023-04-29T07:10:06.217Z,27.90
2023-04-29T07:12:35.565Z,31.20
2023-04-29T07:15:04.846Z,29.37
2023-04-29T07:17:37.537Z,28.83
2023-04-29T07:20:08.017Z,32.00
2023-04-29T07:22:38.839Z,28.80
2023-04-29T07:25:14.581Z,26.30
2023-04-29T07:27:43.979Z,29.70
2023-04-29T07:30:13.697Z,32.37
2023-04-29T07:32:43.429Z,30.50
2023-04-29T07:35:12.675Z,22.23
2023-04-29T07:37:44.123Z,27.73
2023-04-29T07:40:13.856Z,26.83
2023-04-29T07:42:43.070Z,22.13
2023-04-29T07:45:14.095Z,20.60
2023-04-29T07:47:43.575Z,18.33
2023-04-29T07:50:13.102Z,19.13
2023-04-29T07:52:46.038Z,16.87
2023-04-29T07:55:19.115Z,17.60
2023-04-29T07:57:48.611Z,20.63
2023-04-29T08:00:18.157Z,20.20
2023-04-29T08:02:52.408Z,15.70
2023-04-29T08:05:22.616Z,17.57
2023-04-29T08:07:53.789Z,19.07
2023-04-29T08:10:23.460Z,16.77
2023-04-29T08:12:52.885Z,16.50
2023-04-29T08:15:22.395Z,17.73
2023-04-29T08:17:52.105Z,16.57
2023-04-29T08:20:23.529Z,15.93
2023-04-29T08:22:54.848Z,17.17
2023-04-29T08:25:24.171Z,21.70
2023-04-29T08:27:53.958Z,17.23
2023-04-29T08:30:23.491Z,17.57
2023-04-29T08:32:52.957Z,14.90
2023-04-29T08:35:22.546Z,15.30
2023-04-29T08:37:54.465Z,17.27
2023-04-29T08:40:24.325Z,19.53
2023-04-29T08:42:57.725Z,18.10
2023-04-29T08:45:29.892Z,20.30
2023-04-29T08:48:01.038Z,20.20
2023-04-29T08:50:31.576Z,20.17
2023-04-29T08:53:06.713Z,23.30
2023-04-29T08:55:42.463Z,24.73
2023-04-29T08:58:15.485Z,28.20
2023-04-29T09:00:46.797Z,26.53
2023-04-29T09:03:25.386Z,24.90
2023-04-29T09:05:57.124Z,24.10
2023-04-29T09:08:28.415Z,27.97
2023-04-29T09:10:59.369Z,33.07
2023-04-29T09:13:30.100Z,35.23
2023-04-29T09:16:00.028Z,34.75
2023-04-29T09:18:48.863Z,31.27
2023-04-29T09:21:22.048Z,34.53
2023-04-29T09:24:00.584Z,34.17
2023-04-29T09:26:40.949Z,38.67
2023-04-29T09:29:18.637Z,34.00
2023-04-29T09:31:50.300Z,36.53
2023-04-29T09:34:35.851Z,36.93
2023-04-29T09:37:05.368Z,40.70
2023-04-29T09:39:42.282Z,34.43
2023-04-29T09:42:11.485Z,50.53
2023-04-29T09:44:45.402Z,42.97
2023-04-29T09:47:15.011Z,53.37
2023-04-29T09:49:46.979Z,41.37
2023-04-29T09:52:18.418Z,51.37
2023-04-29T09:54:49.189Z,49.72
2023-04-29T09:57:25.698Z,46.83
2023-04-29T09:59:55.519Z,49.60
2023-04-29T10:02:25.782Z,51.97
2023-04-29T10:04:59.275Z,49.40
2023-04-29T10:07:31.595Z,55.63
2023-04-29T10:10:06.849Z,43.83
2023-04-29T10:12:41.419Z,48.57
2023-04-29T10:15:26.570Z,60.60
2023-04-29T10:18:19.127Z,50.53
2023-04-29T10:20:55.116Z,48.70
2023-04-29T10:23:26.387Z,48.40
2023-04-29T10:25:59.047Z,48.17
2023-04-29T10:28:29.430Z,41.30
2023-04-29T10:31:02.730Z,40.53
2023-04-29T10:33:34.952Z,45.00
2023-04-29T10:36:39.137Z,38.90
2023-04-29T10:39:20.570Z,35.90
2023-04-29T10:42:08.354Z,39.93
2023-04-29T10:45:31.580Z,51.60
2023-04-29T10:48:17.548Z,34.33
2023-04-29T10:51:07.861Z,39.40
2023-04-29T10:54:02.162Z,44.03
2023-04-29T10:56:43.992Z,34.50
2023-04-29T10:59:16.225Z,31.50
2023-04-29T11:01:47.808Z,27.53
2023-04-29T11:04:18.092Z,30.10
2023-04-29T11:06:49.324Z,29.13
2023-04-29T11:12:23.173Z,28.87
2023-04-29T11:14:55.806Z,28.43
2023-04-29T11:17:28.333Z,28.03
2023-04-29T11:19:57.966Z,26.10
2023-04-29T11:22:28.718Z,27.60
2023-04-29T11:25:00.792Z,24.53
2023-04-29T11:27:32.747Z,23.03
2023-04-29T11:30:06.657Z,21.93
2023-04-29T11:32:37.363Z,21.00
2023-04-29T11:35:11.818Z,23.30
2023-04-29T11:37:42.400Z,21.20
2023-04-29T11:40:13.404Z,25.30
2023-04-29T11:42:47.131Z,19.10
2023-04-29T11:45:19.866Z,20.80
2023-04-29T11:47:50.781Z,19.73
2023-04-29T11:50:21.287Z,18.60
2023-04-29T11:52:53.115Z,20.33
2023-04-29T11:55:22.245Z,18.10
2023-04-29T11:57:52.644Z,21.90
2023-04-29T12:00:23.484Z,23.97
2023-04-29T12:02:52.797Z,22.17
2023-04-29T12:05:26.729Z,19.60
2023-04-29T12:07:57.092Z,20.60
2023-04-29T12:10:26.183Z,18.73
2023-04-29T12:12:55.456Z,19.13
2023-04-29T12:15:27.305Z,22.10
2023-04-29T12:17:56.815Z,21.57
2023-04-29T12:20:29.341Z,18.70
2023-04-29T12:22:59.341Z,26.53
2023-04-29T12:25:30.542Z,21.07
2023-04-29T12:28:05.649Z,16.10
2023-04-29T12:30:38.912Z,17.03
2023-04-29T12:33:11.246Z,22.07
2023-04-29T12:35:40.450Z,36.70
2023-04-29T12:38:11.340Z,37.67
2023-04-29T12:40:40.787Z,16.30
2023-04-29T12:43:11.815Z,14.17
2023-04-29T12:45:43.068Z,16.10
2023-04-29T12:48:25.408Z,16.47
2023-04-29T12:50:59.905Z,12.70
2023-04-29T12:53:30.983Z,14.90
2023-04-29T12:56:00.793Z,11.57
2023-04-29T12:58:31.491Z,11.50
2023-04-29T13:01:02.388Z,11.57
2023-04-29T13:03:32.119Z,10.40
2023-04-29T13:06:01.527Z,9.23
2023-04-29T13:08:30.914Z,9.67
2023-04-29T13:11:00.152Z,7.67
2023-04-29T13:13:29.426Z,9.50
2023-04-29T13:15:58.735Z,9.83
2023-04-29T13:18:31.289Z,8.23
2023-04-29T13:21:02.591Z,9.57
2023-04-29T13:23:31.876Z,7.37
2023-04-29T13:26:01.294Z,9.50
2023-04-29T13:28:30.485Z,8.97
2023-04-29T13:30:59.683Z,14.27
2023-04-29T13:33:30.214Z,11.30
2023-04-29T13:35:59.347Z,8.97
2023-04-29T13:38:28.576Z,9.73
2023-04-29T13:40:57.774Z,11.20
2023-04-29T13:43:36.703Z,8.60
2023-04-29T13:46:08.430Z,11.57
2023-04-29T13:57:04.788Z,12.33
2023-04-29T13:59:37.874Z,13.37
2023-04-29T14:04:26.917Z,12.40
2023-04-29T14:06:56.373Z,12.77
2023-04-29T14:09:26.411Z,13.67
2023-04-29T14:11:55.597Z,19.43
2023-04-29T14:14:25.249Z,12.60
2023-04-29T14:16:54.353Z,15.07
2023-04-29T14:19:23.527Z,13.97
2023-04-29T14:21:54.209Z,11.20
2023-04-29T14:24:23.659Z,11.47
2023-04-29T14:26:53.564Z,15.57
2023-04-29T14:29:22.815Z,11.70
2023-04-29T14:31:52.081Z,19.80
2023-04-29T14:34:21.358Z,31.93
2023-04-29T14:36:50.472Z,10.63
2023-04-29T14:39:21.063Z,12.97
2023-04-29T14:41:50.118Z,11.37
2023-04-29T14:44:19.188Z,9.27
2023-04-29T14:46:48.392Z,20.23
2023-04-29T14:49:17.895Z,16.90
2023-04-29T14:51:47.224Z,13.50
2023-04-29T14:54:16.418Z,9.20
2023-04-29T14:56:46.976Z,10.13
2023-04-29T14:59:16.875Z,9.23
2023-04-29T15:01:46.253Z,8.33
2023-04-29T15:04:15.339Z,9.70
2023-04-29T15:06:44.783Z,9.27
2023-04-29T15:09:13.955Z,9.03
2023-04-29T15:11:43.073Z,12.17
2023-04-29T15:14:13.550Z,8.63
2023-04-29T15:16:42.641Z,9.37
2023-04-29T15:19:11.714Z,10.23
2023-04-29T15:21:40.887Z,9.03
2023-04-29T15:24:10.150Z,14.20
2023-04-29T15:26:39.443Z,8.60
2023-04-29T15:29:08.516Z,7.37
2023-04-29T15:31:39.292Z,7.57
2023-04-29T15:34:08.485Z,9.73
2023-04-29T15:36:37.574Z,7.47
2023-04-29T15:39:06.645Z,7.73
2023-04-29T15:41:36.509Z,11.90
2023-04-29T15:44:05.810Z,10.67
2023-04-29T15:46:34.953Z,7.70
2023-04-29T15:49:06.718Z,8.23
2023-04-29T15:51:35.768Z,10.93
2023-04-29T15:54:05.611Z,8.17
2023-04-29T15:56:34.923Z,7.30
2023-04-29T15:59:04.082Z,7.57
2023-04-29T16:01:34.437Z,8.67
2023-04-29T16:04:06.837Z,10.20
2023-04-29T16:06:36.154Z,9.83
2023-04-29T16:09:06.190Z,9.53
2023-04-29T16:11:35.466Z,7.60
2023-04-29T16:14:04.578Z,8.73
2023-04-29T16:16:34.009Z,14.37
2023-04-29T16:19:03.150Z,9.43
2023-04-29T16:21:34.201Z,9.97
2023-04-29T16:24:03.342Z,10.57
2023-04-29T16:26:33.200Z,8.47
2023-04-29T16:29:02.288Z,12.33
2023-04-29T16:31:31.525Z,10.93
2023-04-29T16:34:00.752Z,12.97
2023-04-29T16:36:30.205Z,7.53
2023-04-29T16:39:00.792Z,13.50
2023-04-29T16:41:30.124Z,12.20
2023-04-29T16:43:59.952Z,9.80
2023-04-29T16:46:30.012Z,9.47
2023-04-29T16:48:59.225Z,7.37
2023-04-29T16:51:29.327Z,6.43
2023-04-29T16:53:59.810Z,14.13
2023-04-29T16:56:29.078Z,6.60
2023-04-29T16:58:58.456Z,5.83
2023-04-29T17:01:27.688Z,7.27
2023-04-29T17:03:57.972Z,8.83
2023-04-29T17:06:27.939Z,4.77
2023-04-29T17:08:57.169Z,5.37
2023-04-29T17:11:28.088Z,6.30
2023-04-29T17:13:57.234Z,4.67
2023-04-29T17:16:27.451Z,5.40
2023-04-29T17:18:56.657Z,5.00
2023-04-29T17:21:26.146Z,5.70
2023-04-29T17:23:55.415Z,4.47
2023-04-29T17:26:24.728Z,5.43
2023-04-29T17:28:55.365Z,5.77
2023-04-29T17:31:30.967Z,6.40
2023-04-29T17:34:18.409Z,6.97
2023-04-29T17:36:48.360Z,6.97
2023-04-29T17:39:17.579Z,5.90
2023-04-29T17:41:47.113Z,12.53
2023-04-29T17:44:17.688Z,5.60
2023-04-29T17:46:46.887Z,7.17
2023-04-29T17:49:17.100Z,5.93
2023-04-29T17:51:46.232Z,4.67
2023-04-29T17:54:15.283Z,6.07
2023-04-29T17:56:44.417Z,7.90
2023-04-29T17:59:13.631Z,5.33
2023-04-29T18:01:44.418Z,7.60
2023-04-29T18:04:13.750Z,4.70
2023-04-29T18:06:42.992Z,5.83
2023-04-29T18:09:12.145Z,4.83
2023-04-29T18:11:41.526Z,4.00
2023-04-29T18:14:11.030Z,4.47
2023-04-29T18:16:40.315Z,4.60
2023-04-29T18:19:11.652Z,5.43
2023-04-29T18:21:47.079Z,4.83
2023-04-29T18:24:25.013Z,6.60
2023-04-29T18:27:01.479Z,5.70
2023-04-29T18:29:42.997Z,7.23
2023-04-29T18:32:23.398Z,6.10
2023-04-29T18:35:04.965Z,5.97
2023-04-29T18:37:39.157Z,4.53
2023-04-29T18:40:17.308Z,5.10
2023-04-29T18:42:54.027Z,5.57
2023-04-29T18:45:35.251Z,6.20
2023-04-29T18:48:10.250Z,5.00
2023-04-29T18:50:46.370Z,4.47
2023-04-29T18:53:31.652Z,5.40
2023-04-29T18:56:19.869Z,7.60
2023-04-29T18:58:56.022Z,5.10
2023-04-29T19:01:30.053Z,8.67
2023-04-29T19:04:17.475Z,3.80
2023-04-29T19:07:09.614Z,4.90
2023-04-29T19:09:50.042Z,6.33
2023-04-29T19:12:29.545Z,5.10
2023-04-29T19:15:07.209Z,13.30
2023-04-29T19:17:47.867Z,4.20
2023-04-29T19:20:32.229Z,3.73
2023-04-29T19:23:18.188Z,5.60
2023-04-29T19:25:54.776Z,5.90
2023-04-29T19:28:32.899Z,5.20
2023-04-29T19:31:06.891Z,5.67
2023-04-29T19:33:58.859Z,6.27
2023-04-29T19:36:37.918Z,5.47
2023-04-29T19:39:24.708Z,6.70
2023-04-29T19:42:04.941Z,10.53
2023-04-29T19:44:41.535Z,6.10
2023-04-29T19:47:24.171Z,12.33
2023-04-29T19:50:07.523Z,9.27
2023-04-29T19:52:49.041Z,7.60
2023-04-29T19:55:30.052Z,9.77
2023-04-29T19:58:09.770Z,7.90
2023-04-29T20:00:46.964Z,10.97
2023-04-29T20:03:30.461Z,9.73
2023-04-29T20:06:07.736Z,10.13
2023-04-29T20:08:44.264Z,10.07
2023-04-29T20:11:39.189Z,12.50
2023-04-29T20:14:20.015Z,8.10
2023-04-29T20:17:10.676Z,10.73
2023-04-29T20:19:52.467Z,10.60
2023-04-29T20:22:37.497Z,11.10
2023-04-29T20:25:18.513Z,11.30
2023-04-29T20:28:08.042Z,9.50
2023-04-29T20:30:55.131Z,7.87
2023-04-29T20:33:38.485Z,6.67
2023-04-29T20:36:19.154Z,8.90
2023-04-29T20:39:17.124Z,9.40
2023-04-29T20:45:15.846Z,6.53
2023-04-29T20:47:54.736Z,7.60
2023-04-29T20:50:38.139Z,7.33
2023-04-29T20:53:20.362Z,8.83
2023-04-29T20:56:01.388Z,9.50
2023-04-29T20:58:45.142Z,5.70
2023-04-29T21:01:20.267Z,11.13
2023-04-29T21:03:57.221Z,6.70
2023-04-29T21:06:39.348Z,9.75
2023-04-29T21:09:20.312Z,10.30
2023-04-29T21:12:04.130Z,8.20
2023-04-29T21:17:46.952Z,8.23
2023-04-29T21:20:20.521Z,11.33
2023-04-29T21:22:54.700Z,6.63
2023-04-29T21:25:24.976Z,9.10
2023-04-29T21:27:55.091Z,11.10
2023-04-29T21:30:24.237Z,11.27
2023-04-29T21:32:54.922Z,11.10
2023-04-29T21:35:24.093Z,8.33
2023-04-29T21:37:53.191Z,6.87
2023-04-29T21:40:22.804Z,9.63
2023-04-29T21:42:52.468Z,8.60
2023-04-29T21:45:21.627Z,12.10
2023-04-29T21:47:50.961Z,7.57
2023-04-29T21:50:21.826Z,6.43
2023-04-29T21:52:51.057Z,8.07
2023-04-29T21:55:20.315Z,9.50
2023-04-29T21:57:49.528Z,11.07
2023-04-29T22:00:33.171Z,6.13
2023-04-29T22:03:03.125Z,6.60
2023-04-29T22:05:34.018Z,7.17
2023-04-29T22:08:07.384Z,8.23
2023-04-29T22:10:40.263Z,6.20
2023-04-29T22:13:09.612Z,4.97
2023-04-29T22:15:38.962Z,7.13
2023-04-29T22:18:08.277Z,8.33
2023-04-29T22:20:39.065Z,5.43
2023-04-29T22:23:08.116Z,7.45
2023-04-29T22:25:37.361Z,6.72
2023-04-29T22:28:06.731Z,5.85
2023-04-29T22:30:35.930Z,6.70
2023-04-29T22:33:04.993Z,8.50
2023-04-29T22:35:34.174Z,5.97
2023-04-29T22:38:04.682Z,6.03
2023-04-29T22:40:33.768Z,10.32
2023-04-29T22:43:02.877Z,4.70
2023-04-29T22:45:32.219Z,4.78
2023-04-29T22:48:01.412Z,4.55
2023-04-29T22:50:30.541Z,9.18
2023-04-29T22:52:59.722Z,4.53
2023-04-29T22:55:30.286Z,5.13
2023-04-29T22:57:59.344Z,5.50
2023-04-29T23:00:28.375Z,5.95
2023-04-29T23:02:57.549Z,3.33
2023-04-29T23:05:26.881Z,4.65
2023-04-29T23:07:55.953Z,9.55
2023-04-29T23:10:25.161Z,5.72
2023-04-29T23:12:55.812Z,9.77
2023-04-29T23:15:24.870Z,5.28
2023-04-29T23:17:53.954Z,3.33
2023-04-29T23:20:23.159Z,3.72
2023-04-29T23:22:52.895Z,6.40
2023-04-29T23:25:22.041Z,4.97
2023-04-29T23:27:51.209Z,5.63
2023-04-29T23:30:21.730Z,7.25
2023-04-29T23:32:50.927Z,2.67
2023-04-29T23:35:20.207Z,8.52
2023-04-29T23:37:49.417Z,6.28
2023-04-29T23:40:18.777Z,9.02
2023-04-29T23:42:48.013Z,6.00
2023-04-29T23:45:17.378Z,5.60
2023-04-29T23:47:47.959Z,9.30
2023-04-29T23:50:17.113Z,6.30
2023-04-29T23:52:46.255Z,5.68
2023-04-29T23:55:15.374Z,2.83
2023-04-29T23:57:44.686Z,5.50
